Observations at @wa for Latest


KALW 231953Z 15010KT 10SM OVC070 15/05 A3007 RMK AO2 SLP184 T01500050=
KAWO 231956Z AUTO 14016KT 10SM BKN018 OVC029 12/11 A2993 RMK AO2 RAB11E26
 SLP138 P0000 T01220106=
KBFI 231953Z 16007KT 2SM -RA BR BKN007 OVC065 12/11 A2994 RMK AO2 SLP139 P0002
 T01220106=
KBLI 231953Z 17009G19KT 10SM -RA BKN018 OVC050 13/09 A2988 RMK AO2 RAE36B52
 SLP126 P0001 T01280089=
KCLM 231753Z AUTO 00000KT 5SM -RA BR OVC080 07/07 A2987 RMK AO2 SLP115 P0002
 60020 T00720072 10072 20050 51001=
KEAT 231955Z AUTO 00000KT 1SM BR BKN002 OVC015 01/01 A3007 RMK AO2 UPE01 SLP194
 P0000 T00060006=
KEAT 232001Z AUTO 28003KT 3/4SM BR BKN001 OVC015 01/01 A3007 RMK AO2 T00060006=
KEAT 232009Z AUTO 26003KT 1/4SM FG SCT001 OVC016 01/01 A3007 RMK AO2 T00060006=
KEAT 232019Z AUTO 25003KT 3/4SM BR FEW001 FEW008 OVC016 01/01 A3006 RMK AO2
 T00110006=
KEAT 232027Z AUTO 00000KT 1 1/2SM BR OVC016 01/01 A3006 RMK AO2 T00110006=
KELN 231953Z AUTO 00000KT 3SM BR FEW002 OVC011 03/01 A3005 RMK AO2 SLP190
 T00280006=
KELN 232005Z AUTO 00000KT 2SM HZ SCT003 OVC011 03/01 A3005 RMK AO2 T00330006=
KELN 232022Z AUTO 00000KT 1 3/4SM BR BKN003 OVC011 03/01 A3004 RMK AO2
 T00330011=
KEPH 231953Z AUTO 00000KT 8SM -RA OVC009 03/03 A3006 RMK AO2 SLP191 P0001
 T00280028=
KFHR 231953Z AUTO 14012KT 10SM OVC008 11/09 A2988 RMK AO2 RAE46 SLP118 P0001
 T01060094=
KFHR 232027Z AUTO 15011KT 10SM -RA OVC011 11/09 A2988 RMK AO2 RAB09 P0000
 T01060094=
KGEG 231953Z 15012KT 8SM -RA FEW003 BKN036 OVC045 04/02 A3007 RMK AO2 SLP197
 P0001 T00440022 $=
KGRF 231958Z AUTO 13010KT 9SM RA FEW003 FEW028 OVC042 11/11 A2994 RMK AO2
 SLP143 P0009 T01140114 $=
KHQM 231948Z AUTO 20018G29KT 2 1/2SM -RA BR OVC013 11/11 A2992 RMK AO2 PK WND
 21031/1927 SLP135 P0005 T01060106 $=
KHQM 232019Z AUTO 20019G26KT 3SM -RA BR OVC013 11/11 A2991 RMK AO2 PK WND
 21032/2005 P0003 T01110111 $=
KKLS 231956Z AUTO 15016G23KT 10SM -RA OVC014 12/10 A3000 RMK AO2 RAE12B31
 SLP164 P0000 T01220100=
KKLS 232022Z AUTO 15015G22KT 10SM -RA FEW014 OVC065 12/10 A3000 RMK AO2 PK WND
 16026/2005 P0000=
KMWH 231952Z 00000KT 3SM -SN BR VV004 04/02 A3007 RMK AO2 RAB1853E30SNE1853B30
 SLP193 P0002 T00390022 $=
KMWH 232006Z 00000KT 2SM -RA BR OVC009 04/02 A3007 RMK AO2 RAB1953SNE1953 P0000
 T00390022 $=
KNOW 231950Z AUTO 00000KT 10SM -RA BKN075 OVC080 08/08 A2987 RMK AO2 T00820080=
KNOW 232010Z AUTO 24004KT 10SM SCT075 BKN085 BKN100 08/08 A2986 RMK AO2
 T00830080=
KNUW 231956Z 14018G26KT 9SM BKN017 BKN075 OVC090 13/09 A2991 RMK AO2 PK WND
 15028/1940 RAE48 SLP128 P0000 T01330094=
KOLM 231954Z 18012KT 4SM RA BR BKN010 BKN016 OVC029 12/11 A2994 RMK AO2 SLP140
 P0009 T01170106=
KOMK 231953Z AUTO 20004KT 1 3/4SM BR OVC005 02/01 A3007 RMK AO2 SLP197
 T00170006=
KOMK 232025Z AUTO 23003KT 3/4SM BR OVC006 02/01 A3006 RMK AO2 T00170006=
KORS 231955Z AUTO 17009G16KT 3SM -RA BKN013 12/11 A2987 RMK AO2 P0001=
KORS 232015Z AUTO 18010G15KT 9SM BKN014 11/10 A2986 RMK AO2=
KORS 232035Z AUTO 18009KT 6SM -RA OVC013 11/10 A2986 RMK AO2=
KPAE 231953Z 16014KT 7SM -RA SCT005 BKN020 OVC027 11/10 A2993 RMK AO2 RAB12
 SLP138 P0000 T01110100=
KPAE 232035Z 16020G26KT 3SM -RA BR BKN007 BKN019 OVC055 11/10 A2992 RMK AO2 PK
 WND 16026/2032 P0004 T01110100=
KPSC 231953Z 00000KT 2SM -RA BKN075 OVC090 07/00 A3010 RMK AO2 SLP193 P0000
 T00670000=
KPUW 231953Z AUTO 10013KT 10SM OVC041 04/02 A3012 RMK AO2 SLP216 T00440017=
KPWT 231956Z AUTO 21009KT 1 3/4SM RA BR BKN006 OVC009 11/10 A2993 RMK AO2 CIG
 004V008 SLP142 P0014 T01060100=
KPWT 232003Z AUTO 20008KT 2 1/2SM -RA BR OVC006 11/10 A2993 RMK AO2 VIS 2V5 CIG
 004V010 P0002=
KPWT 232019Z AUTO 20008KT 3SM RA BR OVC006 11/10 A2993 RMK AO2 CIG 004V010
 P0006=
KRNT 231953Z 12004KT 2SM -RA BR FEW015 BKN038 OVC070 11/10 A2994 RMK AO2 SLP144
 P0002 T01110100=
KSEA 231953Z 18007KT 3SM -RA BR FEW008 BKN034 OVC046 12/11 A2994 RMK AO2 SLP145
 P0007 T01170106=
KSEA 231959Z 17006KT 3SM -RA BR FEW008 BKN028 OVC035 12/11 A2994 RMK AO2 P0000
 T01170106=
KSFF 231953Z 04003KT 10SM OVC034 06/04 A3009 RMK AO2 RAE43 SLP200 P0002
 T00560044=
KSHN 231953Z AUTO 17005KT 1 3/4SM -RA BR SCT005 BKN010 OVC017 11/11 A2991 RMK
 AO2 RAE05B25 SLP130 P0004 T01110106=
KSHN 231958Z AUTO 17005KT 2SM -RA BR SCT005 OVC015 11/11 A2990 RMK AO2 P0001
 T01110106=
KSHN 232002Z AUTO 17004KT 3SM -RA BR SCT005 BKN012 OVC017 11/11 A2990 RMK AO2
 P0002 T01110106=
KSHN 232012Z AUTO 18003KT 2SM RA BR SCT007 OVC014 11/11 A2990 RMK AO2 P0005
 T01110106=
KSHN 232030Z AUTO 20004KT 1 3/4SM -RA BR FEW006 BKN015 OVC020 11/11 A2990 RMK
 AO2 P0008 T01110111=
KSKA 231956Z 15007KT 10SM -RA OVC025 04/04 A3006 RMK AO2A RAE29RAB35 CIG 019
 RWY05 SLP200 P0001 T00350035 $=
KSKA 232026Z 15010KT 10SM -RA SCT027 BKN036 OVC044 03/03 A3005 RMK AO2A SLP197
 $=
KSMP 231956Z AUTO 07003KT 2 1/2SM -RA BR SCT012 OVC018 01/00 A3000 RMK AO2 VIS
 1 1/4V4 SLP180 P0013 T00110000=
KSMP 232000Z AUTO VRB03KT 1 1/4SM -RA BR SCT012 OVC020 01/00 A3000=
KSMP 232000Z AUTO VRB03KT 1 1/4SM -RA BR SCT012 OVC020 01/00 A3000 RMK AO2
 P0001 T00110000=
KSMP 232005Z AUTO 07003KT 3/4SM -RA BR FEW012 OVC020 01/00 A3000 RMK AO2 P0002
 T00110000=
KSMP 232013Z AUTO 07003KT 1SM -RA BR FEW013 OVC022 01/00 A2999 RMK AO2 P0003
 T00110000=
KSMP 232017Z AUTO 07003KT 1/2SM -RA FG FEW013 OVC022 01/00 A2999 RMK AO2 P0004
 T00110000=
KTCM 231958Z AUTO 16009KT 10SM -RA FEW033 OVC047 12/12 A2994 RMK AO2 RAE44RAB49
 SLP143 P0005 T01160116 $=
KTIW 231953Z 18009KT 1SM -RA BR BKN012 BKN029 OVC034 11/10 A2994 RMK AO2 SLP139
 T01110100 PNO $=
KTIW 232023Z VRB06KT 3SM RA BR BKN012 BKN027 OVC034 11/10 A2993 RMK AO2
 T01060100 PNO $=
KUIL 231953Z AUTO 19009G14KT 3/4SM -RA BR VV006 10/09 A2985 RMK AO2 SLP108
 P0040 T01000094=
KVUO 231953Z AUTO 11009KT 4SM -RA BR BKN034 OVC041 08/07 A3004 RMK AO2 SLP171
 P0005 T00780067=
KYKM 231953Z 00000KT 10SM BKN031 06/03 A3007 RMK AO2 SLP191 T00560028=